Time;durP1;ratioP1;P1;durP2;ratioP2;P2;SDS_P1;SDS_P2;PMS_P1;PMS_P2;Temp;Humidity;BMP_temperature;BMP_pressure;BME280_temperature;BME280_humidity;BME280_pressure;Samples;Min_cycle;Max_cycle;Signal;HPM_P1;HPM_P2
2023/10/15 00:00:16;;;;;;;17.60;3.83;;;;;;;;;;2610481;54;20412;-75
2023/10/15 00:02:43;;;;;;;6.10;3.70;;;;;;;;;;2611763;54;20391;-75
2023/10/15 00:05:15;;;;;;;13.93;3.63;;;;;;;;;;2611794;54;20427;-74
2023/10/15 00:07:41;;;;;;;16.10;4.57;;;;;;;;;;2611567;39;20887;-75
2023/10/15 00:10:10;;;;;;;12.13;4.63;;;;;;;;;;2612059;54;20395;-77
2023/10/15 00:12:37;;;;;;;8.27;4.20;;;;;;;;;;2611939;39;20788;-76
2023/10/15 00:15:03;;;;;;;12.07;4.43;;;;;;;;;;2612406;54;20934;-76
2023/10/15 00:17:30;;;;;;;5.80;3.57;;;;;;;;;;2611339;47;20447;-76
2023/10/15 00:19:56;;;;;;;10.13;4.37;;;;;;;;;;2612553;54;20510;-75
2023/10/15 00:22:22;;;;;;;14.20;4.20;;;;;;;;;;2611690;47;20482;-76
2023/10/15 00:24:50;;;;;;;9.20;3.80;;;;;;;;;;2612157;54;20403;-76
2023/10/15 00:27:17;;;;;;;9.07;4.50;;;;;;;;;;2612462;54;20383;-76
2023/10/15 00:29:43;;;;;;;6.07;4.03;;;;;;;;;;2612489;54;20430;-76
2023/10/15 00:32:09;;;;;;;9.70;4.63;;;;;;;;;;2614983;54;20398;-75
2023/10/15 00:34:35;;;;;;;9.03;3.77;;;;;;;;;;2614825;54;20407;-74
2023/10/15 00:37:05;;;;;;;9.83;4.50;;;;;;;;;;2615373;54;20400;-74
2023/10/15 00:39:31;;;;;;;9.20;3.93;;;;;;;;;;2615592;47;20407;-75
2023/10/15 00:42:02;;;;;;;6.20;4.07;;;;;;;;;;2615781;54;20420;-75
2023/10/15 00:44:29;;;;;;;8.83;4.50;;;;;;;;;;2615915;54;20415;-75
2023/10/15 00:46:56;;;;;;;8.60;4.50;;;;;;;;;;2615829;47;20408;-75
2023/10/15 00:49:25;;;;;;;13.37;4.40;;;;;;;;;;2616099;47;20378;-75
2023/10/15 00:51:53;;;;;;;8.80;4.13;;;;;;;;;;2615916;47;20989;-74
2023/10/15 00:54:21;;;;;;;13.70;4.87;;;;;;;;;;2616899;54;20410;-75
2023/10/15 00:56:54;;;;;;;12.17;5.00;;;;;;;;;;2616508;54;20407;-75
2023/10/15 00:59:21;;;;;;;8.27;4.17;;;;;;;;;;2616287;54;20508;-75
2023/10/15 01:02:03;;;;;;;9.63;4.00;;;;;;;;;;2612769;52;20430;-74
2023/10/15 01:04:35;;;;;;;14.70;4.37;;;;;;;;;;2612075;54;20395;-76
2023/10/15 01:07:13;;;;;;;10.53;4.83;;;;;;;;;;2611183;54;20406;-75
2023/10/15 01:09:42;;;;;;;8.47;2.90;;;;;;;;;;2612107;54;20450;-76
2023/10/15 01:12:30;;;;;;;11.53;4.70;;;;;;;;;;2612126;54;20415;-75
2023/10/15 01:14:57;;;;;;;11.10;3.90;;;;;;;;;;2611473;54;20461;-75
2023/10/15 01:17:23;;;;;;;7.50;3.70;;;;;;;;;;2611281;54;20424;-76
2023/10/15 01:19:51;;;;;;;10.33;4.00;;;;;;;;;;2611645;47;20402;-76
2023/10/15 01:22:18;;;;;;;9.17;3.80;;;;;;;;;;2611101;54;20410;-76
2023/10/15 01:24:45;;;;;;;7.67;4.00;;;;;;;;;;2611698;54;20438;-76
2023/10/15 01:27:13;;;;;;;6.70;3.73;;;;;;;;;;2612681;54;21044;-75
2023/10/15 01:29:44;;;;;;;15.40;4.00;;;;;;;;;;2612771;54;20387;-75
2023/10/15 01:32:12;;;;;;;4.30;3.57;;;;;;;;;;2612053;54;20423;-77
2023/10/15 01:34:44;;;;;;;8.90;4.20;;;;;;;;;;2612092;47;20423;-76
2023/10/15 01:37:21;;;;;;;10.13;4.10;;;;;;;;;;2612873;54;21237;-76
2023/10/15 01:39:48;;;;;;;7.97;4.43;;;;;;;;;;2612851;54;20407;-76
2023/10/15 01:44:55;;;;;;;9.47;5.40;;;;;;;;;;2613215;54;20387;-75
2023/10/15 01:47:28;;;;;;;9.73;5.93;;;;;;;;;;2613757;54;20414;-74
2023/10/15 01:49:56;;;;;;;15.37;6.53;;;;;;;;;;2613542;54;20411;-74
2023/10/15 01:52:30;;;;;;;18.67;6.30;;;;;;;;;;2612792;54;20398;-74
2023/10/15 01:55:03;;;;;;;14.43;7.47;;;;;;;;;;2613429;54;20372;-75
2023/10/15 01:57:29;;;;;;;13.03;9.90;;;;;;;;;;2612823;54;20414;-73
2023/10/15 02:00:05;;;;;;;12.67;10.50;;;;;;;;;;2612911;47;20427;-73
2023/10/15 02:02:32;;;;;;;13.80;10.43;;;;;;;;;;2612190;54;20626;-74
2023/10/15 02:05:00;;;;;;;17.47;9.07;;;;;;;;;;2612551;47;20419;-74
2023/10/15 02:07:30;;;;;;;15.63;9.47;;;;;;;;;;2613314;54;20897;-75
2023/10/15 02:09:56;;;;;;;13.87;10.70;;;;;;;;;;2612373;51;20412;-74
2023/10/15 02:12:22;;;;;;;10.57;9.47;;;;;;;;;;2613369;54;20395;-74
2023/10/15 02:14:51;;;;;;;16.10;9.60;;;;;;;;;;2612626;54;20436;-76
2023/10/15 02:17:24;;;;;;;14.43;10.43;;;;;;;;;;2612951;54;20430;-73
2023/10/15 02:19:55;;;;;;;13.60;11.30;;;;;;;;;;2612801;54;20420;-73
2023/10/15 02:22:22;;;;;;;13.30;10.47;;;;;;;;;;2612902;54;20550;-75
2023/10/15 02:24:49;;;;;;;12.13;10.47;;;;;;;;;;2612720;54;20437;-74
2023/10/15 02:27:17;;;;;;;13.00;10.10;;;;;;;;;;2612706;47;21163;-73
2023/10/15 02:29:49;;;;;;;12.80;9.90;;;;;;;;;;2612339;54;20551;-73
2023/10/15 02:34:52;;;;;;;12.43;9.77;;;;;;;;;;2613353;54;20407;-73
2023/10/15 02:37:28;;;;;;;26.93;9.20;;;;;;;;;;2612104;54;20412;-73
2023/10/15 02:39:59;;;;;;;11.33;8.10;;;;;;;;;;2612751;47;20430;-74
2023/10/15 02:42:34;;;;;;;10.40;8.10;;;;;;;;;;2613113;54;20404;-74
2023/10/15 02:45:00;;;;;;;10.23;8.67;;;;;;;;;;2612476;54;20434;-74
2023/10/15 02:47:31;;;;;;;14.13;10.50;;;;;;;;;;2612437;54;20454;-74
2023/10/15 02:50:03;;;;;;;15.67;8.33;;;;;;;;;;2613087;54;20435;-75
2023/10/15 02:52:35;;;;;;;12.23;8.67;;;;;;;;;;2613235;54;20432;-74
2023/10/15 02:55:10;;;;;;;12.13;8.20;;;;;;;;;;2611906;54;20414;-74
2023/10/15 02:57:38;;;;;;;11.27;8.40;;;;;;;;;;2612462;54;21304;-74
2023/10/15 03:00:13;;;;;;;12.93;8.00;;;;;;;;;;2611982;54;20431;-75
2023/10/15 03:02:43;;;;;;;11.90;9.03;;;;;;;;;;2612003;54;20449;-74
2023/10/15 03:05:13;;;;;;;16.50;8.00;;;;;;;;;;2612204;51;20411;-73
2023/10/15 03:07:42;;;;;;;12.27;9.63;;;;;;;;;;2612265;47;20534;-74
2023/10/15 03:10:10;;;;;;;10.77;7.77;;;;;;;;;;2612558;54;20407;-74
2023/10/15 03:12:43;;;;;;;9.67;8.30;;;;;;;;;;2612936;54;20436;-75
2023/10/15 03:15:10;;;;;;;18.40;9.10;;;;;;;;;;2612975;54;20410;-75
2023/10/15 03:17:40;;;;;;;16.60;9.70;;;;;;;;;;2612139;54;20439;-75
2023/10/15 03:22:44;;;;;;;14.83;9.00;;;;;;;;;;2615843;54;20402;-75
2023/10/15 03:25:14;;;;;;;11.17;8.30;;;;;;;;;;2616605;54;20411;-75
2023/10/15 03:27:47;;;;;;;15.20;8.53;;;;;;;;;;2617018;54;21150;-75
2023/10/15 03:30:14;;;;;;;11.60;8.30;;;;;;;;;;2616338;47;20412;-76
2023/10/15 03:32:44;;;;;;;14.30;7.87;;;;;;;;;;2616016;47;20420;-75
2023/10/15 03:35:27;;;;;;;13.07;8.57;;;;;;;;;;2616094;47;20431;-75
2023/10/15 03:38:06;;;;;;;11.20;8.27;;;;;;;;;;2616730;54;21040;-75
2023/10/15 03:40:40;;;;;;;8.70;7.10;;;;;;;;;;2616719;54;20527;-75
2023/10/15 03:43:15;;;;;;;17.93;8.87;;;;;;;;;;2616389;54;20426;-75
2023/10/15 03:45:50;;;;;;;11.60;8.60;;;;;;;;;;2615665;54;20431;-75
2023/10/15 03:48:18;;;;;;;11.47;7.67;;;;;;;;;;2615899;54;20422;-75
2023/10/15 03:50:55;;;;;;;10.30;8.10;;;;;;;;;;2616344;39;20735;-74
2023/10/15 03:53:36;;;;;;;11.67;7.93;;;;;;;;;;2616152;39;20837;-74
2023/10/15 03:56:17;;;;;;;10.30;7.77;;;;;;;;;;2616272;54;20498;-74
2023/10/15 03:58:43;;;;;;;13.90;8.40;;;;;;;;;;2615749;47;20414;-74
2023/10/15 04:04:10;;;;;;;11.93;8.93;;;;;;;;;;2616849;54;20520;-75
2023/10/15 04:06:36;;;;;;;20.07;10.33;;;;;;;;;;2614198;54;20450;-75
2023/10/15 04:11:30;;;;;;;10.67;8.30;;;;;;;;;;2613328;54;20428;-75
2023/10/15 04:13:57;;;;;;;13.50;7.37;;;;;;;;;;2612770;47;20536;-75
2023/10/15 04:16:25;;;;;;;10.10;8.30;;;;;;;;;;2612981;51;20416;-75
2023/10/15 04:18:53;;;;;;;11.10;7.20;;;;;;;;;;2613037;54;20954;-76
2023/10/15 04:21:20;;;;;;;14.07;10.10;;;;;;;;;;2613101;39;20969;-76
2023/10/15 04:23:49;;;;;;;11.77;7.83;;;;;;;;;;2612950;39;21088;-75
2023/10/15 04:26:15;;;;;;;8.13;6.30;;;;;;;;;;2613035;39;20824;-75
2023/10/15 04:28:41;;;;;;;12.70;7.67;;;;;;;;;;2612533;54;20399;-74
2023/10/15 04:31:22;;;;;;;11.67;6.03;;;;;;;;;;2612642;54;21404;-74
2023/10/15 04:33:51;;;;;;;13.93;7.67;;;;;;;;;;2612973;54;20504;-75
2023/10/15 04:36:20;;;;;;;7.40;5.10;;;;;;;;;;2612778;54;20440;-74
2023/10/15 04:39:05;;;;;;;6.20;4.80;;;;;;;;;;2612542;47;20415;-75
2023/10/15 04:41:33;;;;;;;17.13;5.80;;;;;;;;;;2612960;54;20407;-75
2023/10/15 04:43:59;;;;;;;9.53;4.70;;;;;;;;;;2613695;54;20416;-75
2023/10/15 04:46:26;;;;;;;10.17;5.50;;;;;;;;;;2614469;54;20423;-76
2023/10/15 04:48:52;;;;;;;5.00;3.60;;;;;;;;;;2614168;54;20403;-75
2023/10/15 04:51:29;;;;;;;7.73;4.70;;;;;;;;;;2614009;47;20431;-77
2023/10/15 04:53:57;;;;;;;8.33;5.50;;;;;;;;;;2615246;47;20897;-77
2023/10/15 04:56:23;;;;;;;9.60;4.53;;;;;;;;;;2614013;47;20430;-77
2023/10/15 04:58:49;;;;;;;7.90;4.17;;;;;;;;;;2613753;54;20451;-76
2023/10/15 05:01:15;;;;;;;4.10;3.10;;;;;;;;;;2614025;47;20451;-77
2023/10/15 05:03:45;;;;;;;5.63;3.70;;;;;;;;;;2614678;54;20391;-76
2023/10/15 05:06:11;;;;;;;5.73;3.47;;;;;;;;;;2613304;54;20417;-75
2023/10/15 05:08:40;;;;;;;4.83;3.07;;;;;;;;;;2614483;39;20842;-75
2023/10/15 05:11:10;;;;;;;3.37;2.77;;;;;;;;;;2613879;54;20411;-75
2023/10/15 05:13:36;;;;;;;5.07;2.57;;;;;;;;;;2612629;54;20407;-75
2023/10/15 05:16:02;;;;;;;6.10;3.00;;;;;;;;;;2613122;54;20408;-75
2023/10/15 05:18:29;;;;;;;5.17;2.10;;;;;;;;;;2612740;54;20379;-76
2023/10/15 05:20:56;;;;;;;5.47;2.43;;;;;;;;;;2612892;54;20495;-76
2023/10/15 05:23:25;;;;;;;3.40;2.67;;;;;;;;;;2612087;54;20560;-76
2023/10/15 05:25:52;;;;;;;6.20;2.40;;;;;;;;;;2613173;54;20387;-76
2023/10/15 05:28:19;;;;;;;3.10;2.40;;;;;;;;;;2612868;54;20415;-76
2023/10/15 05:30:45;;;;;;;4.00;2.60;;;;;;;;;;2612861;54;21108;-76
2023/10/15 05:33:11;;;;;;;5.37;2.60;;;;;;;;;;2612501;54;20962;-76
2023/10/15 05:35:37;;;;;;;5.43;2.07;;;;;;;;;;2612081;47;20434;-76
2023/10/15 05:38:08;;;;;;;3.40;2.23;;;;;;;;;;2612251;54;20403;-74
2023/10/15 05:40:34;;;;;;;4.67;2.60;;;;;;;;;;2612824;54;21614;-75
2023/10/15 05:43:00;;;;;;;3.57;2.67;;;;;;;;;;2613377;54;20403;-76
2023/10/15 05:45:27;;;;;;;3.97;1.83;;;;;;;;;;2613100;47;20600;-76
2023/10/15 05:47:53;;;;;;;4.27;2.00;;;;;;;;;;2614131;54;20910;-77
2023/10/15 05:50:19;;;;;;;5.10;2.03;;;;;;;;;;2613743;54;20427;-75
2023/10/15 05:52:45;;;;;;;3.57;2.03;;;;;;;;;;2612963;51;20417;-75
2023/10/15 05:55:12;;;;;;;2.70;1.80;;;;;;;;;;2613419;54;20426;-75
2023/10/15 05:57:38;;;;;;;4.40;2.20;;;;;;;;;;2612920;54;20436;-76
2023/10/15 06:00:26;;;;;;;2.97;1.70;;;;;;;;;;2612122;54;20940;-76
2023/10/15 06:02:53;;;;;;;4.13;2.60;;;;;;;;;;2612176;51;21037;-76
2023/10/15 06:05:21;;;;;;;3.50;2.33;;;;;;;;;;2613265;39;20776;-76
2023/10/15 06:07:48;;;;;;;5.97;2.47;;;;;;;;;;2614275;54;20403;-76
2023/10/15 06:10:15;;;;;;;5.60;2.37;;;;;;;;;;2612964;54;20411;-76
2023/10/15 06:12:42;;;;;;;4.37;2.27;;;;;;;;;;2613238;47;20433;-76
2023/10/15 06:15:09;;;;;;;5.13;2.90;;;;;;;;;;2613518;47;20951;-74
2023/10/15 06:17:35;;;;;;;2.73;1.70;;;;;;;;;;2612586;54;20414;-76
2023/10/15 06:20:12;;;;;;;1.90;1.60;;;;;;;;;;2613082;54;20448;-76
2023/10/15 06:22:39;;;;;;;2.97;2.30;;;;;;;;;;2612951;54;20387;-76
2023/10/15 06:25:05;;;;;;;4.93;2.27;;;;;;;;;;2613199;51;20439;-74
2023/10/15 06:27:31;;;;;;;4.67;2.67;;;;;;;;;;2614734;54;20494;-78
2023/10/15 06:29:59;;;;;;;4.00;2.50;;;;;;;;;;2613370;47;20419;-79
2023/10/15 06:32:26;;;;;;;5.83;2.70;;;;;;;;;;2613813;54;20426;-77
2023/10/15 06:34:52;;;;;;;3.60;2.20;;;;;;;;;;2611358;47;20459;-76
2023/10/15 06:37:18;;;;;;;3.77;3.30;;;;;;;;;;2612270;54;20428;-74
2023/10/15 06:39:46;;;;;;;5.03;3.00;;;;;;;;;;2613119;54;20498;-77
2023/10/15 06:42:12;;;;;;;4.93;2.63;;;;;;;;;;2612124;54;20417;-77
2023/10/15 06:44:38;;;;;;;6.43;2.90;;;;;;;;;;2612524;54;20407;-76
2023/10/15 06:47:04;;;;;;;5.27;2.60;;;;;;;;;;2614102;54;20424;-76
2023/10/15 06:49:30;;;;;;;3.10;2.20;;;;;;;;;;2613558;54;20414;-76
2023/10/15 06:51:57;;;;;;;5.40;3.23;;;;;;;;;;2612935;54;20424;-75
2023/10/15 06:54:26;;;;;;;3.50;2.20;;;;;;;;;;2614290;54;20416;-73
2023/10/15 06:56:52;;;;;;;3.53;2.07;;;;;;;;;;2613216;54;20949;-76
2023/10/15 06:59:19;;;;;;;4.00;2.50;;;;;;;;;;2611785;54;20440;-74
2023/10/15 07:01:45;;;;;;;4.60;3.03;;;;;;;;;;2610575;46;21259;-73
2023/10/15 07:04:12;;;;;;;8.00;2.60;;;;;;;;;;2613232;54;20400;-76
2023/10/15 07:06:39;;;;;;;3.80;2.00;;;;;;;;;;2612467;54;20439;-75
2023/10/15 07:09:07;;;;;;;4.53;2.20;;;;;;;;;;2612748;54;20404;-73
2023/10/15 07:11:35;;;;;;;3.30;2.17;;;;;;;;;;2614169;39;20809;-73
2023/10/15 07:14:02;;;;;;;5.00;2.87;;;;;;;;;;2612612;47;20944;-74
2023/10/15 07:16:30;;;;;;;4.53;2.50;;;;;;;;;;2613696;54;20419;-75
2023/10/15 07:19:05;;;;;;;5.60;2.30;;;;;;;;;;2613666;51;20401;-73
2023/10/15 07:21:41;;;;;;;2.93;2.17;;;;;;;;;;2613663;47;20930;-73
2023/10/15 07:24:13;;;;;;;5.63;3.03;;;;;;;;;;2614618;54;20418;-73
2023/10/15 07:26:41;;;;;;;5.13;2.90;;;;;;;;;;2614654;47;20495;-72
2023/10/15 07:29:08;;;;;;;5.50;2.20;;;;;;;;;;2614456;47;20438;-74
2023/10/15 07:31:34;;;;;;;3.27;2.10;;;;;;;;;;2614478;54;20435;-73
2023/10/15 07:34:01;;;;;;;3.20;2.27;;;;;;;;;;2614381;54;20406;-73
2023/10/15 07:36:30;;;;;;;4.27;2.80;;;;;;;;;;2613544;54;20499;-76
2023/10/15 07:38:57;;;;;;;4.70;2.30;;;;;;;;;;2614731;54;20419;-73
2023/10/15 07:41:28;;;;;;;4.30;2.40;;;;;;;;;;2613508;54;20411;-73
2023/10/15 07:43:54;;;;;;;5.50;2.90;;;;;;;;;;2613273;54;20430;-72
2023/10/15 07:46:21;;;;;;;7.03;2.60;;;;;;;;;;2614355;54;20407;-72
2023/10/15 07:48:48;;;;;;;5.17;3.23;;;;;;;;;;2613119;54;20415;-75
2023/10/15 07:51:15;;;;;;;4.50;2.83;;;;;;;;;;2607582;54;20481;-72
2023/10/15 07:53:41;;;;;;;5.60;2.97;;;;;;;;;;2610952;47;20414;-75
2023/10/15 07:56:07;;;;;;;4.57;2.73;;;;;;;;;;2610277;39;20814;-74
2023/10/15 07:58:35;;;;;;;3.03;2.13;;;;;;;;;;2610438;54;20434;-74
2023/10/15 08:01:01;;;;;;;4.80;2.80;;;;;;;;;;2605841;54;20453;-75
2023/10/15 08:03:29;;;;;;;3.87;2.87;;;;;;;;;;2605346;54;20406;-75
2023/10/15 08:05:55;;;;;;;3.60;2.27;;;;;;;;;;2606409;54;20419;-75
2023/10/15 08:08:24;;;;;;;6.83;2.90;;;;;;;;;;2607817;54;20419;-75
2023/10/15 08:10:51;;;;;;;8.00;3.00;;;;;;;;;;2608713;54;21035;-75
2023/10/15 08:13:18;;;;;;;3.90;2.50;;;;;;;;;;2607467;54;20412;-75
2023/10/15 08:15:44;;;;;;;5.80;3.07;;;;;;;;;;2608659;54;20958;-75
2023/10/15 08:18:12;;;;;;;5.63;2.70;;;;;;;;;;2605426;54;20455;-75
2023/10/15 08:20:38;;;;;;;2.90;2.57;;;;;;;;;;2606418;47;20551;-75
2023/10/15 08:23:04;;;;;;;4.40;3.10;;;;;;;;;;2607721;54;20410;-74
2023/10/15 08:25:32;;;;;;;4.30;2.23;;;;;;;;;;2605043;39;21682;-75
2023/10/15 08:27:58;;;;;;;13.40;3.00;;;;;;;;;;2607731;47;20536;-75
2023/10/15 08:30:24;;;;;;;3.60;2.20;;;;;;;;;;2606833;54;20448;-75
2023/10/15 08:32:50;;;;;;;4.83;2.83;;;;;;;;;;2609529;54;20426;-76
2023/10/15 08:35:17;;;;;;;6.10;2.93;;;;;;;;;;2610626;54;20420;-75
2023/10/15 08:37:44;;;;;;;3.93;2.73;;;;;;;;;;2610351;54;20695;-74
2023/10/15 08:40:17;;;;;;;3.83;2.70;;;;;;;;;;2609609;54;20487;-74
2023/10/15 08:42:46;;;;;;;3.40;2.67;;;;;;;;;;2608339;48;20415;-74
2023/10/15 08:45:13;;;;;;;4.73;2.97;;;;;;;;;;2609480;54;20523;-74
2023/10/15 08:47:39;;;;;;;6.97;4.00;;;;;;;;;;2609781;54;20446;-75
2023/10/15 08:50:07;;;;;;;5.67;3.67;;;;;;;;;;2609981;54;20420;-75
2023/10/15 08:52:33;;;;;;;5.43;3.00;;;;;;;;;;2609818;54;20959;-75
2023/10/15 08:54:59;;;;;;;7.70;4.10;;;;;;;;;;2609408;48;20427;-75
2023/10/15 08:57:25;;;;;;;6.67;4.17;;;;;;;;;;2609669;39;21449;-75
2023/10/15 08:59:52;;;;;;;7.63;5.90;;;;;;;;;;2609248;47;21129;-74
2023/10/15 09:02:19;;;;;;;6.97;4.70;;;;;;;;;;2610291;54;20522;-75
2023/10/15 09:04:45;;;;;;;9.17;3.80;;;;;;;;;;2612292;46;20490;-75
2023/10/15 09:07:20;;;;;;;8.30;3.63;;;;;;;;;;2612500;54;20988;-74
2023/10/15 09:09:49;;;;;;;4.00;3.10;;;;;;;;;;2612670;54;20402;-74
2023/10/15 09:12:15;;;;;;;3.97;3.40;;;;;;;;;;2612917;54;20506;-75
2023/10/15 09:14:45;;;;;;;5.17;3.40;;;;;;;;;;2612040;54;20432;-75
2023/10/15 09:17:11;;;;;;;6.17;3.93;;;;;;;;;;2611979;54;20447;-75
2023/10/15 09:19:41;;;;;;;8.80;3.37;;;;;;;;;;2612679;54;20491;-74
2023/10/15 09:22:07;;;;;;;4.10;3.27;;;;;;;;;;2611974;54;20511;-75
2023/10/15 09:24:34;;;;;;;3.93;3.20;;;;;;;;;;2612614;54;20560;-75
2023/10/15 09:27:00;;;;;;;4.50;2.73;;;;;;;;;;2612572;54;20958;-75
2023/10/15 09:29:30;;;;;;;3.00;2.13;;;;;;;;;;2611915;54;20991;-76
2023/10/15 09:31:56;;;;;;;3.20;2.17;;;;;;;;;;2612881;54;20534;-75
2023/10/15 09:34:26;;;;;;;3.70;2.03;;;;;;;;;;2613284;39;20803;-74
2023/10/15 09:36:52;;;;;;;2.60;1.90;;;;;;;;;;2612932;54;20400;-75
2023/10/15 09:39:18;;;;;;;4.57;2.53;;;;;;;;;;2611720;54;21396;-75
2023/10/15 09:41:45;;;;;;;3.50;2.43;;;;;;;;;;2612183;39;20773;-75
2023/10/15 09:44:17;;;;;;;3.37;2.60;;;;;;;;;;2612639;54;20938;-75
2023/10/15 09:46:52;;;;;;;4.07;2.57;;;;;;;;;;2609983;54;20404;-74
2023/10/15 09:49:18;;;;;;;3.63;2.23;;;;;;;;;;2610611;39;21062;-74
2023/10/15 09:51:48;;;;;;;3.30;1.80;;;;;;;;;;2609947;47;20437;-74
2023/10/15 09:54:19;;;;;;;3.60;2.70;;;;;;;;;;2609941;39;20788;-76
2023/10/15 09:56:45;;;;;;;2.90;2.40;;;;;;;;;;2609123;54;20431;-74
2023/10/15 09:59:14;;;;;;;4.40;2.93;;;;;;;;;;2609314;54;20431;-76
2023/10/15 10:01:46;;;;;;;2.23;1.77;;;;;;;;;;2608350;47;20443;-75
2023/10/15 10:04:40;;;;;;;2.33;2.03;;;;;;;;;;2611081;54;20408;-76
2023/10/15 10:07:14;;;;;;;3.67;2.77;;;;;;;;;;2611906;47;20411;-76
2023/10/15 10:09:54;;;;;;;4.77;3.17;;;;;;;;;;2612238;54;20386;-76
2023/10/15 10:12:28;;;;;;;2.00;1.80;;;;;;;;;;2612299;54;20411;-76
2023/10/15 10:15:04;;;;;;;3.80;2.33;;;;;;;;;;2612537;54;20954;-76
2023/10/15 10:17:31;;;;;;;3.67;2.90;;;;;;;;;;2613237;39;20786;-75
2023/10/15 10:19:57;;;;;;;3.37;2.80;;;;;;;;;;2612835;54;20408;-76
2023/10/15 10:22:24;;;;;;;4.03;3.50;;;;;;;;;;2611331;54;20392;-75
2023/10/15 10:24:50;;;;;;;4.83;3.70;;;;;;;;;;2611614;54;20431;-75
2023/10/15 10:27:17;;;;;;;3.40;3.10;;;;;;;;;;2612709;54;20462;-75
2023/10/15 10:29:43;;;;;;;3.20;3.00;;;;;;;;;;2612589;54;20415;-75
2023/10/15 10:32:13;;;;;;;2.80;2.60;;;;;;;;;;2610803;54;20412;-76
2023/10/15 10:34:40;;;;;;;3.00;2.63;;;;;;;;;;2610050;54;20396;-76
2023/10/15 10:37:19;;;;;;;6.23;2.80;;;;;;;;;;2609853;54;20395;-79
2023/10/15 10:39:47;;;;;;;3.40;3.10;;;;;;;;;;2607415;47;20411;-76
2023/10/15 10:42:23;;;;;;;5.70;4.77;;;;;;;;;;2609229;54;20503;-76
2023/10/15 10:44:49;;;;;;;4.70;4.30;;;;;;;;;;2610097;54;20430;-76
2023/10/15 10:47:16;;;;;;;5.17;3.40;;;;;;;;;;2611175;54;20430;-76
2023/10/15 10:49:47;;;;;;;3.50;3.20;;;;;;;;;;2610192;54;20955;-76
2023/10/15 10:52:23;;;;;;;4.33;3.73;;;;;;;;;;2611620;54;20369;-76
2023/10/15 10:54:49;;;;;;;5.77;3.63;;;;;;;;;;2609153;54;20411;-76
2023/10/15 10:57:18;;;;;;;3.70;3.30;;;;;;;;;;2608992;54;20958;-76
2023/10/15 10:59:44;;;;;;;8.20;3.37;;;;;;;;;;2609192;39;20860;-76
2023/10/15 11:02:11;;;;;;;4.83;4.33;;;;;;;;;;2609761;31;20792;-77
2023/10/15 11:04:38;;;;;;;4.30;3.90;;;;;;;;;;2609378;47;20420;-77
2023/10/15 11:07:04;;;;;;;3.70;3.23;;;;;;;;;;2608971;47;20457;-76
2023/10/15 11:09:31;;;;;;;5.30;3.80;;;;;;;;;;2610028;54;20391;-76
2023/10/15 11:11:57;;;;;;;5.30;4.53;;;;;;;;;;2610634;54;20412;-75
2023/10/15 11:14:25;;;;;;;4.03;3.53;;;;;;;;;;2610303;54;20415;-76
2023/10/15 11:16:52;;;;;;;4.00;3.80;;;;;;;;;;2611784;39;20937;-76
2023/10/15 11:19:29;;;;;;;5.20;4.70;;;;;;;;;;2614064;54;20267;-71
2023/10/15 11:21:55;;;;;;;5.03;4.43;;;;;;;;;;2613713;46;20419;-72
2023/10/15 11:24:25;;;;;;;5.50;5.00;;;;;;;;;;2613229;54;20419;-71
2023/10/15 11:26:54;;;;;;;5.27;4.27;;;;;;;;;;2612188;54;20461;-74
2023/10/15 11:29:22;;;;;;;5.07;4.57;;;;;;;;;;2614173;46;20461;-71
2023/10/15 11:31:48;;;;;;;5.30;4.90;;;;;;;;;;2613214;54;20415;-73
2023/10/15 11:34:21;;;;;;;4.47;3.80;;;;;;;;;;2615207;38;20542;-73
2023/10/15 11:36:50;;;;;;;4.13;3.83;;;;;;;;;;2615085;46;20947;-73
2023/10/15 11:39:37;;;;;;;4.27;3.97;;;;;;;;;;2614160;38;20750;-74
2023/10/15 11:42:04;;;;;;;4.20;3.90;;;;;;;;;;2615715;54;20429;-72
2023/10/15 11:44:33;;;;;;;4.03;3.73;;;;;;;;;;2616668;54;20422;-70
2023/10/15 11:47:08;;;;;;;4.17;3.87;;;;;;;;;;2613501;46;20445;-71
2023/10/15 11:49:38;;;;;;;4.30;4.00;;;;;;;;;;2612623;54;20437;-72
2023/10/15 11:52:05;;;;;;;4.43;4.20;;;;;;;;;;2616110;54;20453;-72
2023/10/15 11:54:32;;;;;;;5.27;4.87;;;;;;;;;;2614041;46;20452;-72
2023/10/15 11:57:05;;;;;;;4.90;4.60;;;;;;;;;;2615374;54;20430;-71
2023/10/15 11:59:38;;;;;;;4.60;4.40;;;;;;;;;;2613840;39;20667;-69
2023/10/15 12:02:04;;;;;;;4.87;4.57;;;;;;;;;;2612656;54;20443;-70
2023/10/15 12:04:30;;;;;;;7.43;6.70;;;;;;;;;;2613688;54;20503;-69
2023/10/15 12:06:57;;;;;;;4.57;4.27;;;;;;;;;;2613429;54;21087;-70
2023/10/15 12:09:26;;;;;;;4.40;4.00;;;;;;;;;;2613238;54;20418;-71
2023/10/15 12:11:52;;;;;;;4.17;3.87;;;;;;;;;;2612459;54;20431;-71
2023/10/15 12:14:18;;;;;;;4.53;4.23;;;;;;;;;;2613945;54;20987;-70
2023/10/15 12:16:45;;;;;;;4.50;4.20;;;;;;;;;;2613586;54;20446;-70
2023/10/15 12:19:11;;;;;;;4.90;4.50;;;;;;;;;;2614881;54;20450;-71
2023/10/15 12:21:38;;;;;;;5.07;4.60;;;;;;;;;;2612979;54;20415;-71
2023/10/15 12:24:05;;;;;;;6.50;4.53;;;;;;;;;;2613342;54;20685;-71
2023/10/15 12:26:31;;;;;;;5.67;5.17;;;;;;;;;;2611707;38;21766;-72
2023/10/15 12:28:57;;;;;;;6.20;4.40;;;;;;;;;;2612343;54;20442;-71
2023/10/15 12:31:24;;;;;;;5.33;4.90;;;;;;;;;;2611976;54;20896;-71
2023/10/15 12:33:50;;;;;;;6.10;5.50;;;;;;;;;;2611199;39;20807;-72
2023/10/15 12:36:16;;;;;;;6.50;6.10;;;;;;;;;;2612514;54;20423;-71
2023/10/15 12:38:43;;;;;;;5.30;4.80;;;;;;;;;;2612765;54;20461;-71
2023/10/15 12:41:10;;;;;;;5.23;4.83;;;;;;;;;;2612823;54;20414;-72
2023/10/15 12:43:40;;;;;;;4.77;4.47;;;;;;;;;;2613285;54;20442;-73
2023/10/15 12:46:07;;;;;;;5.30;4.90;;;;;;;;;;2613135;39;20870;-73
2023/10/15 12:48:33;;;;;;;5.40;4.90;;;;;;;;;;2612700;54;20461;-72
2023/10/15 12:50:59;;;;;;;5.47;4.80;;;;;;;;;;2610693;54;20443;-72
2023/10/15 12:53:25;;;;;;;6.13;5.73;;;;;;;;;;2611393;54;20428;-72
2023/10/15 12:55:52;;;;;;;5.67;5.10;;;;;;;;;;2610302;54;20969;-73
2023/10/15 12:58:18;;;;;;;5.33;4.87;;;;;;;;;;2611900;54;20448;-73
2023/10/15 13:00:48;;;;;;;7.03;5.50;;;;;;;;;;2610405;54;20449;-73
2023/10/15 13:03:15;;;;;;;6.10;5.60;;;;;;;;;;2608485;54;20431;-72
2023/10/15 13:05:41;;;;;;;5.23;4.83;;;;;;;;;;2612162;54;20506;-72
2023/10/15 13:08:08;;;;;;;5.97;5.37;;;;;;;;;;2609785;54;21224;-73
2023/10/15 13:10:34;;;;;;;5.30;5.00;;;;;;;;;;2610065;54;20476;-73
2023/10/15 13:13:00;;;;;;;5.43;5.03;;;;;;;;;;2611167;54;20425;-73
2023/10/15 13:15:26;;;;;;;5.47;5.00;;;;;;;;;;2610769;54;20424;-74
2023/10/15 13:17:55;;;;;;;5.67;5.37;;;;;;;;;;2610901;54;20463;-74
2023/10/15 13:20:23;;;;;;;5.60;5.30;;;;;;;;;;2610796;54;20431;-73
2023/10/15 13:22:49;;;;;;;5.23;4.83;;;;;;;;;;2610802;54;20427;-72
2023/10/15 13:25:15;;;;;;;5.70;5.40;;;;;;;;;;2611901;54;21073;-73
2023/10/15 13:27:42;;;;;;;6.30;5.83;;;;;;;;;;2611743;54;20506;-74
2023/10/15 13:30:15;;;;;;;6.63;6.00;;;;;;;;;;2612099;54;20523;-73
2023/10/15 13:32:47;;;;;;;5.80;5.40;;;;;;;;;;2612182;54;20427;-75
2023/10/15 13:35:14;;;;;;;5.07;4.77;;;;;;;;;;2612015;54;20408;-73
2023/10/15 13:37:41;;;;;;;6.40;6.00;;;;;;;;;;2612815;54;20419;-72
2023/10/15 13:40:10;;;;;;;5.67;5.47;;;;;;;;;;2612441;54;20453;-71
2023/10/15 13:42:47;;;;;;;5.30;5.10;;;;;;;;;;2613041;39;20814;-72
2023/10/15 13:45:15;;;;;;;5.67;5.17;;;;;;;;;;2613286;39;20811;-73
2023/10/15 13:47:41;;;;;;;5.53;5.23;;;;;;;;;;2612863;47;20439;-72
2023/10/15 13:50:09;;;;;;;5.40;5.00;;;;;;;;;;2612856;54;20467;-73
2023/10/15 13:52:39;;;;;;;6.20;5.80;;;;;;;;;;2611548;54;20419;-71
2023/10/15 13:55:05;;;;;;;6.43;5.90;;;;;;;;;;2612936;47;20439;-78
2023/10/15 13:57:32;;;;;;;6.03;5.50;;;;;;;;;;2612567;54;20435;-77
2023/10/15 13:59:58;;;;;;;6.03;5.73;;;;;;;;;;2612665;39;20569;-77
2023/10/15 14:02:25;;;;;;;6.20;5.80;;;;;;;;;;2612447;54;20398;-75
2023/10/15 14:04:51;;;;;;;5.43;5.13;;;;;;;;;;2612974;54;20430;-72
2023/10/15 14:07:18;;;;;;;5.40;5.17;;;;;;;;;;2613228;54;20411;-71
2023/10/15 14:09:44;;;;;;;5.33;5.03;;;;;;;;;;2612949;39;20797;-73
2023/10/15 14:12:10;;;;;;;5.80;5.50;;;;;;;;;;2612840;54;20411;-72
2023/10/15 14:14:37;;;;;;;6.30;5.80;;;;;;;;;;2613066;54;20411;-73
2023/10/15 14:17:04;;;;;;;6.67;6.03;;;;;;;;;;2612424;54;20412;-71
2023/10/15 14:19:30;;;;;;;5.60;5.20;;;;;;;;;;2612617;54;20415;-72
2023/10/15 14:21:57;;;;;;;11.27;5.90;;;;;;;;;;2612120;54;20471;-73
2023/10/15 14:24:23;;;;;;;7.90;5.57;;;;;;;;;;2613683;39;20514;-72
2023/10/15 14:26:49;;;;;;;5.67;5.17;;;;;;;;;;2610271;54;20454;-73
2023/10/15 14:29:15;;;;;;;8.67;5.33;;;;;;;;;;2612944;54;20423;-74
2023/10/15 14:31:41;;;;;;;6.73;6.13;;;;;;;;;;2612346;47;20439;-72
2023/10/15 14:34:07;;;;;;;6.20;5.80;;;;;;;;;;2612446;54;20502;-72
2023/10/15 14:36:40;;;;;;;5.30;4.90;;;;;;;;;;2612740;46;20458;-71
2023/10/15 14:39:09;;;;;;;5.57;5.20;;;;;;;;;;2612168;54;20530;-72
2023/10/15 14:41:35;;;;;;;5.97;5.57;;;;;;;;;;2612751;47;20454;-70
2023/10/15 14:44:02;;;;;;;6.00;5.40;;;;;;;;;;2613284;39;20859;-71
2023/10/15 14:46:28;;;;;;;6.23;5.10;;;;;;;;;;2612830;54;20427;-72
2023/10/15 14:48:54;;;;;;;5.83;5.43;;;;;;;;;;2612801;54;20412;-73
2023/10/15 14:51:20;;;;;;;5.80;5.50;;;;;;;;;;2612633;54;20423;-71
2023/10/15 14:53:46;;;;;;;5.80;5.40;;;;;;;;;;2612809;54;20462;-71
2023/10/15 14:56:12;;;;;;;5.80;5.50;;;;;;;;;;2612583;54;20455;-71
2023/10/15 14:58:38;;;;;;;5.80;5.40;;;;;;;;;;2612302;54;20466;-72
2023/10/15 15:01:04;;;;;;;5.27;4.97;;;;;;;;;;2612039;54;20943;-71